Time;durP1;ratioP1;P1;durP2;ratioP2;P2;SDS_P1;SDS_P2;PMS_P1;PMS_P2;Temp;Humidity;BMP_temperature;BMP_pressure;BME280_temperature;BME280_humidity;BME280_pressure;Samples;Min_cycle;Max_cycle;Signal;HPM_P1;HPM_P2
2023/12/17 00:01:57;;;;;;;17.77;12.17;;;-0.20;99.90;;;;;;5059544;28;20209;-59
2023/12/17 00:04:24;;;;;;;20.93;13.17;;;-0.20;99.90;;;;;;5049471;28;20218;-62
2023/12/17 00:06:51;;;;;;;23.23;14.57;;;-0.30;99.90;;;;;;5051017;28;20633;-60
2023/12/17 00:09:18;;;;;;;20.10;14.70;;;-0.30;99.90;;;;;;5049387;28;20195;-60
2023/12/17 00:11:45;;;;;;;19.43;13.10;;;-0.30;99.90;;;;;;5051880;28;20250;-60
2023/12/17 00:14:13;;;;;;;18.77;12.70;;;-0.30;99.90;;;;;;5050942;28;20203;-60
2023/12/17 00:16:40;;;;;;;20.83;13.30;;;-0.20;99.90;;;;;;5048573;28;20291;-60
2023/12/17 00:19:09;;;;;;;17.63;12.93;;;-0.20;99.90;;;;;;5051273;28;20219;-60
2023/12/17 00:21:36;;;;;;;18.40;11.70;;;-0.30;99.90;;;;;;5051875;28;20291;-60
2023/12/17 00:24:03;;;;;;;15.03;11.63;;;-0.30;99.90;;;;;;5051788;28;20243;-60
2023/12/17 00:26:30;;;;;;;14.00;10.20;;;-0.20;99.90;;;;;;5052768;28;20777;-60
2023/12/17 00:28:58;;;;;;;15.50;11.20;;;-0.30;99.90;;;;;;5049678;28;20210;-60
2023/12/17 00:31:25;;;;;;;17.20;10.37;;;-0.30;99.90;;;;;;5050960;28;20212;-60
2023/12/17 00:33:52;;;;;;;12.60;9.60;;;-0.30;99.90;;;;;;5052533;28;20204;-60
2023/12/17 00:36:20;;;;;;;12.23;10.63;;;-0.30;99.90;;;;;;5058661;28;20247;-60
2023/12/17 00:38:48;;;;;;;13.50;10.00;;;-0.20;99.90;;;;;;5049322;28;20206;-60
2023/12/17 00:41:18;;;;;;;12.60;9.83;;;-0.20;99.90;;;;;;5052608;28;20305;-60
2023/12/17 00:43:45;;;;;;;13.47;9.73;;;-0.30;99.90;;;;;;5051249;28;20244;-60
2023/12/17 00:46:15;;;;;;;13.00;10.23;;;-0.20;99.90;;;;;;5051228;28;20306;-60
2023/12/17 00:48:42;;;;;;;11.80;9.30;;;-0.30;99.90;;;;;;5050032;28;20199;-60
2023/12/17 00:51:12;;;;;;;10.40;9.37;;;-0.30;99.90;;;;;;5050743;28;20757;-59
2023/12/17 00:53:40;;;;;;;9.47;8.17;;;-0.30;99.90;;;;;;5049214;28;20202;-60
2023/12/17 00:56:08;;;;;;;12.13;9.63;;;-0.30;99.90;;;;;;5048226;28;20309;-60
2023/12/17 00:58:35;;;;;;;10.30;8.60;;;-0.30;99.90;;;;;;5050194;28;20575;-60
2023/12/17 01:01:02;;;;;;;9.00;7.87;;;-0.30;99.90;;;;;;5048993;28;20230;-60
2023/12/17 01:03:30;;;;;;;9.87;7.47;;;-0.30;99.90;;;;;;5050719;28;20629;-60
2023/12/17 01:05:57;;;;;;;10.13;7.40;;;-0.20;99.90;;;;;;5048751;28;20226;-60
2023/12/17 01:08:24;;;;;;;11.03;9.17;;;-0.30;99.90;;;;;;5050709;28;20806;-60
2023/12/17 01:10:53;;;;;;;11.93;8.70;;;-0.30;99.90;;;;;;5050739;28;20218;-60
2023/12/17 01:13:20;;;;;;;12.73;9.23;;;-0.30;99.90;;;;;;5042558;28;20206;-61
2023/12/17 01:15:47;;;;;;;10.97;9.80;;;-0.30;99.90;;;;;;5049195;28;20219;-60
2023/12/17 01:18:14;;;;;;;15.43;9.97;;;-0.30;99.90;;;;;;5050601;28;20205;-60
2023/12/17 01:20:41;;;;;;;13.10;10.37;;;-0.40;99.90;;;;;;5048852;28;20239;-60
2023/12/17 01:23:09;;;;;;;15.67;10.93;;;-0.30;99.90;;;;;;5050690;28;20212;-60
2023/12/17 01:25:36;;;;;;;12.10;10.03;;;-0.40;99.90;;;;;;5048990;28;20317;-60
2023/12/17 01:28:04;;;;;;;12.00;9.43;;;-0.40;99.90;;;;;;5050069;28;20644;-62
2023/12/17 01:30:31;;;;;;;17.40;10.80;;;-0.30;99.90;;;;;;5050774;28;20206;-60
2023/12/17 01:32:58;;;;;;;17.20;12.33;;;-0.30;99.90;;;;;;5050695;28;20251;-60
2023/12/17 01:35:25;;;;;;;15.60;10.70;;;-0.30;99.90;;;;;;5047517;28;20230;-60
2023/12/17 01:37:52;;;;;;;14.47;9.80;;;-0.30;99.90;;;;;;5048417;28;20200;-61
2023/12/17 01:40:19;;;;;;;14.83;10.50;;;-0.30;99.90;;;;;;5041460;28;20229;-60
2023/12/17 01:42:47;;;;;;;16.27;10.37;;;-0.30;99.90;;;;;;5049079;28;20866;-60
2023/12/17 01:45:15;;;;;;;13.67;9.47;;;-0.40;99.90;;;;;;5053480;28;20305;-60
2023/12/17 01:47:43;;;;;;;13.07;10.43;;;-0.40;99.90;;;;;;5049996;28;20666;-60
2023/12/17 01:50:10;;;;;;;16.17;10.63;;;-0.40;99.90;;;;;;5052683;28;20250;-60
2023/12/17 01:52:37;;;;;;;15.10;10.73;;;-0.50;99.90;;;;;;5052545;28;20215;-59
2023/12/17 01:55:11;;;;;;;13.37;9.53;;;-0.50;99.90;;;;;;5047206;28;20276;-59
2023/12/17 01:57:38;;;;;;;11.97;8.70;;;-0.50;99.90;;;;;;5051106;28;20283;-60
2023/12/17 02:00:06;;;;;;;12.97;9.90;;;-0.50;99.90;;;;;;5053090;28;20224;-59
2023/12/17 02:02:36;;;;;;;13.60;10.37;;;-0.50;99.90;;;;;;5049795;28;20213;-60
2023/12/17 02:05:05;;;;;;;11.30;10.13;;;-0.50;99.90;;;;;;5053214;28;20222;-59
2023/12/17 02:07:33;;;;;;;13.33;10.33;;;-0.50;99.90;;;;;;5053503;28;20604;-59
2023/12/17 02:10:00;;;;;;;16.57;10.50;;;-0.50;99.90;;;;;;5052835;28;20551;-59
2023/12/17 02:12:29;;;;;;;15.47;9.13;;;-0.60;99.90;;;;;;5052914;28;20209;-60
2023/12/17 02:14:56;;;;;;;12.60;8.93;;;-0.60;99.90;;;;;;5051241;28;20221;-59
2023/12/17 02:17:28;;;;;;;11.40;9.00;;;-0.70;99.90;;;;;;5053842;28;20203;-59
2023/12/17 02:19:57;;;;;;;12.40;8.57;;;-0.70;99.90;;;;;;5053338;28;20221;-59
2023/12/17 02:22:26;;;;;;;12.20;9.00;;;-0.70;99.90;;;;;;5053595;28;20206;-59
2023/12/17 02:24:55;;;;;;;12.83;8.23;;;-0.70;99.90;;;;;;5055456;28;20228;-60
2023/12/17 02:27:24;;;;;;;14.23;9.90;;;-0.70;99.90;;;;;;5051522;28;20691;-60
2023/12/17 02:29:52;;;;;;;12.33;9.33;;;-0.70;99.90;;;;;;5052215;28;20207;-60
2023/12/17 02:32:20;;;;;;;13.47;9.50;;;-0.70;99.90;;;;;;5053329;28;20203;-60
2023/12/17 02:34:54;;;;;;;11.60;10.07;;;-0.70;99.90;;;;;;5053212;28;20225;-60
2023/12/17 02:37:21;;;;;;;12.20;8.90;;;-0.70;99.90;;;;;;5049341;28;20197;-60
2023/12/17 02:39:49;;;;;;;13.00;9.87;;;-0.70;99.90;;;;;;5049839;28;20209;-59
2023/12/17 02:42:18;;;;;;;13.13;9.03;;;-0.70;99.90;;;;;;5049860;28;20208;-60
2023/12/17 02:44:45;;;;;;;11.40;9.47;;;-0.60;99.90;;;;;;5053120;28;20226;-59
2023/12/17 02:47:15;;;;;;;11.60;9.50;;;-0.70;99.90;;;;;;5051871;28;20202;-60
2023/12/17 02:49:43;;;;;;;16.30;10.73;;;-0.70;99.90;;;;;;5046572;28;20718;-60
2023/12/17 02:52:09;;;;;;;11.93;8.57;;;-0.70;99.90;;;;;;5051978;28;20287;-60
2023/12/17 02:54:36;;;;;;;14.53;10.70;;;-0.70;99.90;;;;;;5050827;28;20219;-60
2023/12/17 02:57:04;;;;;;;13.57;10.53;;;-0.70;99.90;;;;;;5051862;28;20207;-60
2023/12/17 02:59:32;;;;;;;13.97;10.17;;;-0.70;99.90;;;;;;5052322;28;20747;-60
2023/12/17 03:01:59;;;;;;;12.53;9.23;;;-0.60;99.90;;;;;;5050657;28;20215;-62
2023/12/17 03:04:26;;;;;;;14.83;10.33;;;-0.60;99.90;;;;;;5052889;28;20210;-60
2023/12/17 03:06:53;;;;;;;12.27;9.83;;;-0.60;99.90;;;;;;5051946;28;20638;-60
2023/12/17 03:09:20;;;;;;;12.63;10.03;;;-0.60;99.90;;;;;;5050870;28;20582;-60
2023/12/17 03:11:51;;;;;;;13.23;9.93;;;-0.60;99.90;;;;;;5053057;28;20729;-60
2023/12/17 03:14:18;;;;;;;12.03;9.87;;;-0.70;99.90;;;;;;5053058;28;20200;-60
2023/12/17 03:16:46;;;;;;;14.20;10.00;;;-0.70;99.90;;;;;;5049546;28;20260;-62
2023/12/17 03:19:13;;;;;;;13.00;10.10;;;-0.70;99.90;;;;;;5062818;28;20688;-59
2023/12/17 03:21:40;;;;;;;11.37;9.67;;;-0.70;99.90;;;;;;5054976;28;20723;-59
2023/12/17 03:24:07;;;;;;;11.50;9.37;;;-0.70;99.90;;;;;;5049697;28;20215;-60
2023/12/17 03:26:34;;;;;;;17.00;10.13;;;-0.70;99.90;;;;;;5048212;28;20211;-60
2023/12/17 03:29:01;;;;;;;16.33;10.67;;;-0.70;99.90;;;;;;5051852;28;20195;-59
2023/12/17 03:31:28;;;;;;;15.37;10.23;;;-0.70;99.90;;;;;;5056222;28;20254;-60
2023/12/17 03:33:56;;;;;;;13.00;9.87;;;-0.80;99.90;;;;;;5066944;28;20676;-62
2023/12/17 03:36:23;;;;;;;14.30;9.80;;;-0.80;99.90;;;;;;5052419;28;20631;-60
2023/12/17 03:38:50;;;;;;;13.47;9.67;;;-0.80;99.90;;;;;;5053880;28;20203;-60
2023/12/17 03:41:23;;;;;;;13.23;10.70;;;-0.80;99.90;;;;;;5055347;28;20281;-59
2023/12/17 03:43:52;;;;;;;10.43;9.27;;;-0.80;99.90;;;;;;5047218;28;20258;-60
2023/12/17 03:46:19;;;;;;;14.50;10.33;;;-0.80;99.90;;;;;;5057504;28;20225;-59
2023/12/17 03:48:46;;;;;;;13.93;8.70;;;-0.90;99.90;;;;;;5047187;28;20253;-60
2023/12/17 03:51:15;;;;;;;11.97;8.60;;;-0.90;99.90;;;;;;5049166;28;20209;-59
2023/12/17 03:53:42;;;;;;;11.03;8.33;;;-0.90;99.90;;;;;;5049603;28;20230;-59
2023/12/17 03:56:10;;;;;;;9.20;8.13;;;-0.90;99.90;;;;;;5043414;28;20228;-60
2023/12/17 03:58:36;;;;;;;12.50;9.37;;;-0.90;99.90;;;;;;5060871;28;20256;-60
2023/12/17 04:01:04;;;;;;;11.90;8.67;;;-0.90;99.90;;;;;;5052837;28;20222;-59
2023/12/17 04:03:31;;;;;;;10.97;9.30;;;-0.90;99.90;;;;;;5045153;28;20667;-60
2023/12/17 04:05:59;;;;;;;10.73;8.37;;;-0.90;99.90;;;;;;5050501;28;20221;-60
2023/12/17 04:08:28;;;;;;;11.70;9.10;;;-0.90;99.90;;;;;;5050233;28;20283;-60
2023/12/17 04:10:55;;;;;;;13.27;8.20;;;-0.90;99.90;;;;;;5057064;28;20286;-60
2023/12/17 04:13:22;;;;;;;10.43;8.50;;;-0.90;99.90;;;;;;5039766;28;20266;-60
2023/12/17 04:15:50;;;;;;;12.87;8.60;;;-0.90;99.90;;;;;;5050760;28;20232;-62
2023/12/17 04:18:16;;;;;;;10.87;8.60;;;-0.90;99.90;;;;;;5048326;28;20206;-60
2023/12/17 04:20:43;;;;;;;10.40;8.33;;;-0.90;99.90;;;;;;5049609;28;20223;-60
2023/12/17 04:23:10;;;;;;;13.60;8.90;;;-0.90;99.90;;;;;;5050223;28;20201;-60
2023/12/17 04:25:39;;;;;;;12.80;8.57;;;-0.90;99.90;;;;;;5045658;28;20234;-59
2023/12/17 04:28:06;;;;;;;12.60;10.03;;;-0.90;99.90;;;;;;5070955;28;20663;-60
2023/12/17 04:30:33;;;;;;;9.80;8.80;;;-0.90;99.90;;;;;;5068282;28;20204;-60
2023/12/17 04:32:59;;;;;;;10.60;9.03;;;-0.80;99.90;;;;;;5060062;28;20256;-59
2023/12/17 04:35:26;;;;;;;16.10;9.70;;;-0.80;99.90;;;;;;5054694;28;20638;-60
2023/12/17 04:37:54;;;;;;;10.87;9.27;;;-0.80;99.90;;;;;;5054356;28;20658;-59
2023/12/17 04:40:21;;;;;;;12.97;9.50;;;-0.80;99.90;;;;;;5047212;28;20237;-60
2023/12/17 04:42:49;;;;;;;12.30;10.77;;;-0.70;99.90;;;;;;5049628;28;20207;-61
2023/12/17 04:45:16;;;;;;;11.80;9.90;;;-0.80;99.90;;;;;;5057715;28;20301;-60
2023/12/17 04:47:43;;;;;;;15.43;9.93;;;-0.70;99.90;;;;;;5062064;28;20213;-60
2023/12/17 04:50:10;;;;;;;13.50;10.00;;;-0.80;99.90;;;;;;5057430;28;20204;-59
2023/12/17 04:52:37;;;;;;;12.43;10.17;;;-0.90;99.90;;;;;;5051210;28;20268;-59
2023/12/17 04:55:05;;;;;;;13.23;9.37;;;-1.00;99.90;;;;;;5044238;28;20227;-60
2023/12/17 04:57:32;;;;;;;10.47;8.97;;;-1.00;99.90;;;;;;5049835;28;20216;-58
2023/12/17 05:00:03;;;;;;;12.10;9.33;;;-1.00;99.90;;;;;;5040434;28;20208;-60
2023/12/17 05:02:30;;;;;;;48.57;23.47;;;-1.10;99.90;;;;;;5039760;28;20646;-59
2023/12/17 05:04:57;;;;;;;50.67;24.50;;;-1.10;99.90;;;;;;5041146;28;20302;-60
2023/12/17 05:07:24;;;;;;;38.53;19.87;;;-1.20;99.90;;;;;;5040591;28;20302;-60
2023/12/17 05:09:52;;;;;;;30.20;17.60;;;-1.20;99.90;;;;;;5041523;28;20214;-59
2023/12/17 05:12:19;;;;;;;24.80;15.40;;;-1.20;99.90;;;;;;5044986;28;20203;-62
2023/12/17 05:14:46;;;;;;;20.23;13.80;;;-1.30;99.90;;;;;;5041620;28;20633;-59
2023/12/17 05:17:15;;;;;;;20.33;13.67;;;-1.30;99.90;;;;;;5044836;28;20207;-59
2023/12/17 05:19:42;;;;;;;22.17;13.03;;;-1.20;99.90;;;;;;5043708;28;20568;-60
2023/12/17 05:22:09;;;;;;;15.07;11.93;;;-1.20;99.90;;;;;;5048511;28;20228;-60
2023/12/17 05:24:36;;;;;;;18.47;12.47;;;-1.20;99.90;;;;;;5057659;28;20725;-59
2023/12/17 05:27:04;;;;;;;21.10;13.50;;;-1.20;99.90;;;;;;5043736;28;20200;-59
2023/12/17 05:29:31;;;;;;;16.87;12.47;;;-1.30;99.90;;;;;;5043852;28;20204;-60
2023/12/17 05:31:58;;;;;;;20.43;11.70;;;-1.30;99.90;;;;;;5049575;28;20266;-60
2023/12/17 05:34:27;;;;;;;18.80;12.10;;;-1.30;99.90;;;;;;5041043;28;20212;-59
2023/12/17 05:36:57;;;;;;;15.70;11.80;;;-1.30;99.90;;;;;;5047630;28;20258;-60
2023/12/17 05:39:24;;;;;;;15.70;10.77;;;-1.30;99.90;;;;;;5048190;28;20212;-60
2023/12/17 05:41:54;;;;;;;16.03;10.83;;;-1.30;99.90;;;;;;5054087;28;20224;-60
2023/12/17 05:44:22;;;;;;;15.63;11.13;;;-1.30;99.90;;;;;;5054163;28;20253;-59
2023/12/17 05:46:52;;;;;;;17.40;10.63;;;-1.30;99.90;;;;;;5054243;28;20206;-60
2023/12/17 05:49:19;;;;;;;17.30;11.30;;;-1.30;99.90;;;;;;5053712;28;20211;-60
2023/12/17 05:51:51;;;;;;;13.40;9.50;;;-1.30;99.90;;;;;;5056523;28;20196;-60
2023/12/17 05:54:18;;;;;;;17.83;11.20;;;-1.30;99.90;;;;;;5059782;28;20262;-60
2023/12/17 05:56:48;;;;;;;16.33;10.67;;;-1.30;99.90;;;;;;5053737;28;20265;-60
2023/12/17 05:59:15;;;;;;;11.03;9.33;;;-1.30;99.90;;;;;;5053759;28;20204;-60
2023/12/17 06:01:42;;;;;;;11.53;10.33;;;-1.20;99.90;;;;;;5053155;28;20229;-60
2023/12/17 06:04:09;;;;;;;11.63;9.43;;;-1.30;99.90;;;;;;5053035;28;20202;-62
2023/12/17 06:06:36;;;;;;;14.07;11.10;;;-1.30;99.90;;;;;;5053207;28;20225;-60
2023/12/17 06:09:05;;;;;;;18.80;12.73;;;-1.30;99.90;;;;;;5051579;28;20273;-60
2023/12/17 06:11:32;;;;;;;14.87;12.57;;;-1.20;99.90;;;;;;5053061;28;20208;-60
2023/12/17 06:13:58;;;;;;;19.50;16.10;;;-1.20;99.90;;;;;;5053602;28;20631;-59
2023/12/17 06:16:26;;;;;;;21.50;15.13;;;-1.20;99.90;;;;;;5053426;28;20588;-61
2023/12/17 06:18:53;;;;;;;15.63;11.20;;;-1.20;99.90;;;;;;5052811;28;20267;-62
2023/12/17 06:21:23;;;;;;;13.60;10.17;;;-1.30;99.90;;;;;;5053228;28;20236;-60
2023/12/17 06:23:51;;;;;;;14.50;11.20;;;-1.30;99.90;;;;;;5053026;28;20669;-60
2023/12/17 06:26:20;;;;;;;11.00;8.57;;;-1.30;99.90;;;;;;5053068;28;20786;-60
2023/12/17 06:28:47;;;;;;;10.33;8.70;;;-1.30;99.90;;;;;;5052692;28;20686;-60
2023/12/17 06:31:14;;;;;;;10.60;9.10;;;-1.30;99.90;;;;;;5052915;28;20639;-60
2023/12/17 06:33:41;;;;;;;11.23;7.47;;;-1.20;99.90;;;;;;5046996;28;20294;-62
2023/12/17 06:36:09;;;;;;;12.90;8.63;;;-1.20;99.90;;;;;;5046756;28;20222;-63
2023/12/17 06:38:36;;;;;;;10.90;8.87;;;-1.30;99.90;;;;;;5052892;28;20342;-69
2023/12/17 06:41:03;;;;;;;8.27;6.80;;;-1.30;99.90;;;;;;5052991;28;20737;-67
2023/12/17 06:43:32;;;;;;;11.63;9.10;;;-1.30;99.90;;;;;;5053515;28;20286;-67
2023/12/17 06:45:59;;;;;;;11.10;9.10;;;-1.30;99.90;;;;;;5053163;28;20298;-67
2023/12/17 06:48:26;;;;;;;10.77;8.23;;;-1.30;99.90;;;;;;5052572;28;20230;-69
2023/12/17 06:50:53;;;;;;;10.37;9.23;;;-1.30;99.90;;;;;;5053114;28;20207;-67
2023/12/17 06:53:20;;;;;;;9.50;7.27;;;-1.30;99.90;;;;;;5058975;28;20256;-69
2023/12/17 06:55:47;;;;;;;9.93;7.47;;;-1.40;99.90;;;;;;5057973;28;20722;-67
2023/12/17 06:58:14;;;;;;;11.10;9.30;;;-1.40;99.90;;;;;;5052882;28;20253;-67
2023/12/17 07:00:43;;;;;;;10.10;9.00;;;-1.30;99.90;;;;;;5052923;28;20199;-67
2023/12/17 07:03:10;;;;;;;16.30;10.53;;;-1.30;99.90;;;;;;5051933;28;20235;-67
2023/12/17 07:05:37;;;;;;;10.20;9.20;;;-1.40;99.90;;;;;;5052362;28;20707;-67
2023/12/17 07:08:04;;;;;;;13.40;10.47;;;-1.30;99.90;;;;;;5044059;28;20218;-67
2023/12/17 07:10:31;;;;;;;12.37;10.90;;;-1.20;99.90;;;;;;5050921;28;20695;-67
2023/12/17 07:12:58;;;;;;;11.93;10.67;;;-1.20;99.90;;;;;;5052787;28;20633;-67
2023/12/17 07:15:25;;;;;;;12.30;9.67;;;-1.20;99.90;;;;;;5052499;28;20278;-70
2023/12/17 07:17:53;;;;;;;12.67;9.57;;;-1.20;99.90;;;;;;5052334;28;20265;-67
2023/12/17 07:20:20;;;;;;;11.30;9.13;;;-1.10;99.90;;;;;;5051672;28;20277;-68
2023/12/17 07:22:49;;;;;;;11.70;10.20;;;-1.10;99.90;;;;;;5050385;28;20224;-67
2023/12/17 07:25:18;;;;;;;10.43;9.43;;;-1.10;99.90;;;;;;5052257;28;20236;-67
2023/12/17 07:27:45;;;;;;;14.23;10.57;;;-1.00;99.90;;;;;;5051977;28;20289;-68
2023/12/17 07:30:13;;;;;;;13.50;10.60;;;-1.00;99.90;;;;;;5052504;28;20210;-67
2023/12/17 07:32:40;;;;;;;14.17;10.77;;;-1.00;99.90;;;;;;5055049;28;20667;-68
2023/12/17 07:35:09;;;;;;;15.40;12.17;;;-1.00;99.90;;;;;;5054914;28;20727;-67
2023/12/17 07:37:36;;;;;;;14.53;11.13;;;-1.00;99.90;;;;;;5052070;28;20213;-67
2023/12/17 07:40:04;;;;;;;22.97;17.47;;;-1.00;99.90;;;;;;5060407;28;20666;-70
2023/12/17 07:42:31;;;;;;;20.90;15.23;;;-0.90;99.90;;;;;;5051491;28;20285;-68
2023/12/17 07:44:57;;;;;;;19.53;15.33;;;-0.80;99.90;;;;;;5052138;28;20296;-68
2023/12/17 07:47:26;;;;;;;23.00;18.43;;;-0.80;99.90;;;;;;5051834;28;20274;-68
2023/12/17 07:49:53;;;;;;;26.90;18.60;;;-0.80;99.90;;;;;;5051703;28;20206;-68
2023/12/17 07:52:21;;;;;;;20.37;14.70;;;-0.90;99.90;;;;;;5051840;28;20200;-68
2023/12/17 07:54:48;;;;;;;16.27;13.67;;;-0.90;99.90;;;;;;5052121;28;20228;-68
2023/12/17 07:57:15;;;;;;;21.83;15.40;;;-0.80;99.90;;;;;;5052018;28;20206;-68
2023/12/17 07:59:44;;;;;;;21.17;15.53;;;-0.70;99.90;;;;;;5052623;28;20254;-68
2023/12/17 08:02:11;;;;;;;20.63;14.50;;;-0.70;99.90;;;;;;5053287;28;20333;-67
2023/12/17 08:04:38;;;;;;;20.73;15.57;;;-0.60;99.90;;;;;;5051798;28;20230;-70
2023/12/17 08:07:05;;;;;;;18.37;15.20;;;-0.60;99.90;;;;;;5051464;28;20734;-68
2023/12/17 08:09:35;;;;;;;19.57;15.63;;;-0.50;99.90;;;;;;5051584;28;20280;-70
2023/12/17 08:12:02;;;;;;;28.83;22.03;;;-0.40;99.90;;;;;;5051610;28;20202;-70
2023/12/17 08:14:29;;;;;;;26.00;20.77;;;-0.30;99.90;;;;;;5044121;28;20203;-68
2023/12/17 08:16:56;;;;;;;38.10;27.17;;;-0.30;99.90;;;;;;5051791;28;20204;-68
2023/12/17 08:19:23;;;;;;;41.57;30.00;;;-0.20;99.90;;;;;;5051328;28;20259;-67
2023/12/17 08:21:54;;;;;;;37.27;26.47;;;0.10;99.90;;;;;;5047447;28;20215;-68
2023/12/17 08:24:21;;;;;;;32.23;23.27;;;0.30;99.90;;;;;;5051448;28;20848;-67
2023/12/17 08:26:54;;;;;;;23.97;16.97;;;0.50;99.90;;;;;;5051455;28;20633;-68
2023/12/17 08:29:21;;;;;;;11.90;10.10;;;0.70;99.90;;;;;;5052453;28;20685;-68
2023/12/17 08:31:48;;;;;;;15.20;13.40;;;0.80;99.90;;;;;;5046199;28;20201;-68
2023/12/17 08:34:15;;;;;;;17.40;14.17;;;0.90;99.90;;;;;;5055461;28;20202;-67
2023/12/17 08:36:43;;;;;;;18.30;13.60;;;0.90;99.90;;;;;;5051408;28;20209;-67
2023/12/17 08:39:11;;;;;;;23.50;18.90;;;1.10;99.90;;;;;;5061460;28;20286;-68
2023/12/17 08:41:38;;;;;;;23.60;16.33;;;1.30;99.90;;;;;;5058191;28;20258;-68
2023/12/17 08:44:07;;;;;;;21.73;15.53;;;1.50;99.90;;;;;;5059502;28;20210;-67
2023/12/17 08:46:34;;;;;;;16.93;14.60;;;1.60;99.90;;;;;;5056892;28;20258;-67
2023/12/17 08:49:03;;;;;;;17.07;14.17;;;1.80;99.90;;;;;;5057879;28;20207;-68
2023/12/17 08:51:30;;;;;;;17.07;12.10;;;2.00;99.90;;;;;;5046787;28;20248;-69
2023/12/17 08:53:57;;;;;;;13.50;11.80;;;2.20;99.90;;;;;;5062041;28;20237;-67
2023/12/17 08:56:24;;;;;;;17.70;13.73;;;2.30;99.90;;;;;;5056388;28;20230;-68
2023/12/17 08:58:51;;;;;;;14.57;12.03;;;2.60;99.90;;;;;;5055086;28;20199;-67
2023/12/17 09:01:20;;;;;;;18.60;12.43;;;2.70;99.90;;;;;;5053929;28;20208;-68
2023/12/17 09:03:47;;;;;;;12.97;11.67;;;2.90;99.90;;;;;;5049328;28;20224;-68
2023/12/17 09:06:14;;;;;;;17.13;11.53;;;3.20;99.90;;;;;;5054591;28;20277;-67
2023/12/17 09:08:41;;;;;;;13.27;11.07;;;3.50;99.90;;;;;;5054083;28;20353;-67
2023/12/17 09:11:08;;;;;;;12.77;9.03;;;3.80;99.90;;;;;;5055224;28;20294;-68
2023/12/17 09:13:35;;;;;;;12.70;9.37;;;3.90;99.90;;;;;;5054080;28;20247;-68
2023/12/17 09:16:02;;;;;;;10.13;8.57;;;4.10;99.90;;;;;;5055106;28;20270;-67
2023/12/17 09:18:30;;;;;;;8.47;7.57;;;4.20;99.90;;;;;;5054615;28;20207;-68
2023/12/17 09:20:57;;;;;;;9.83;8.10;;;4.30;99.90;;;;;;5055056;28;20215;-68
2023/12/17 09:23:24;;;;;;;8.40;7.57;;;4.40;99.90;;;;;;5054692;28;20237;-67
2023/12/17 09:25:51;;;;;;;9.90;7.77;;;4.40;99.90;;;;;;5054587;28;20236;-68
2023/12/17 09:28:18;;;;;;;10.30;7.40;;;4.40;99.90;;;;;;5063831;28;20558;-68
2023/12/17 09:30:45;;;;;;;12.53;8.03;;;4.40;99.90;;;;;;5057622;28;20211;-68
2023/12/17 09:33:13;;;;;;;9.10;8.23;;;4.40;99.90;;;;;;5054586;28;20200;-67
2023/12/17 09:35:42;;;;;;;8.47;7.50;;;4.40;99.90;;;;;;5050324;28;20220;-68
2023/12/17 09:38:10;;;;;;;9.93;7.97;;;4.30;99.90;;;;;;5054130;28;20239;-68
2023/12/17 09:40:37;;;;;;;9.10;7.67;;;4.10;99.90;;;;;;5054334;28;20207;-67
2023/12/17 09:43:05;;;;;;;9.90;7.97;;;4.10;99.90;;;;;;5054275;28;20224;-68
2023/12/17 09:45:32;;;;;;;9.20;8.27;;;4.10;99.90;;;;;;5054025;28;20227;-68
2023/12/17 09:48:00;;;;;;;15.73;11.50;;;4.10;99.90;;;;;;5041450;28;20660;-68
2023/12/17 09:50:27;;;;;;;11.50;9.17;;;4.20;99.90;;;;;;5052051;28;20231;-68
2023/12/17 09:52:56;;;;;;;14.13;10.87;;;4.20;99.90;;;;;;5049731;28;20201;-68
2023/12/17 09:55:23;;;;;;;10.63;8.80;;;4.20;99.90;;;;;;5056628;28;20271;-68
2023/12/17 09:57:51;;;;;;;9.90;8.17;;;4.20;99.90;;;;;;5062384;28;20540;-68
2023/12/17 10:00:18;;;;;;;12.43;9.97;;;4.20;99.90;;;;;;5054572;28;20284;-68
2023/12/17 10:02:48;;;;;;;13.17;10.23;;;4.20;99.90;;;;;;5051187;28;20216;-68
2023/12/17 10:05:15;;;;;;;13.10;9.53;;;4.20;99.90;;;;;;5050459;28;20215;-68
2023/12/17 10:07:43;;;;;;;12.37;8.73;;;4.10;99.90;;;;;;5052281;28;20201;-68
2023/12/17 10:10:11;;;;;;;9.97;8.33;;;4.20;99.90;;;;;;5052039;28;20781;-68
2023/12/17 10:12:39;;;;;;;11.00;8.63;;;4.60;99.90;;;;;;5053763;28;20207;-68
2023/12/17 10:15:10;;;;;;;10.33;8.20;;;5.00;99.90;;;;;;5057763;28;20274;-68
2023/12/17 10:17:38;;;;;;;8.63;7.63;;;5.60;99.90;;;;;;5057178;28;20676;-67
2023/12/17 10:20:06;;;;;;;9.07;8.17;;;6.10;99.90;;;;;;5062596;28;20277;-67
2023/12/17 10:22:33;;;;;;;9.73;8.30;;;6.40;99.90;;;;;;5048393;28;20253;-68
2023/12/17 10:25:00;;;;;;;8.33;7.33;;;6.80;99.90;;;;;;5053270;28;20765;-68
2023/12/17 10:27:30;;;;;;;8.13;7.33;;;7.20;99.90;;;;;;5053309;28;20205;-67
2023/12/17 10:30:01;;;;;;;8.47;7.60;;;7.20;99.90;;;;;;5059331;28;20215;-67
2023/12/17 10:32:28;;;;;;;10.60;8.07;;;7.70;99.90;;;;;;5053688;28;20265;-67
2023/12/17 10:34:55;;;;;;;9.87;7.40;;;7.60;99.90;;;;;;5052634;28;20265;-67
2023/12/17 10:37:24;;;;;;;8.60;7.67;;;7.60;99.90;;;;;;5047708;28;20247;-67
2023/12/17 10:39:54;;;;;;;12.77;9.43;;;7.50;99.90;;;;;;5052389;28;20291;-67
2023/12/17 10:42:21;;;;;;;8.53;7.73;;;7.40;99.90;;;;;;5052632;28;20789;-67
2023/12/17 10:44:52;;;;;;;8.70;7.67;;;7.10;99.90;;;;;;5055210;28;20223;-67
2023/12/17 10:47:22;;;;;;;12.17;10.47;;;7.00;99.90;;;;;;5052658;28;20671;-67
2023/12/17 10:49:50;;;;;;;12.43;10.80;;;6.80;99.90;;;;;;5052403;28;20251;-67
2023/12/17 10:52:19;;;;;;;13.90;10.97;;;6.60;99.90;;;;;;5052463;28;20210;-67
2023/12/17 10:54:46;;;;;;;12.83;11.00;;;6.60;99.90;;;;;;5052382;28;20281;-66
2023/12/17 10:57:20;;;;;;;12.73;10.23;;;6.40;99.90;;;;;;5046370;28;20204;-67
2023/12/17 10:59:50;;;;;;;12.40;10.37;;;6.30;99.90;;;;;;5052021;28;20238;-67
2023/12/17 11:02:21;;;;;;;15.77;10.80;;;6.10;99.90;;;;;;5053003;28;20204;-67
2023/12/17 11:04:48;;;;;;;17.07;11.80;;;6.20;99.90;;;;;;5049002;28;20578;-67
2023/12/17 11:07:18;;;;;;;15.07;11.63;;;5.80;99.90;;;;;;5052146;28;20203;-67
2023/12/17 11:09:45;;;;;;;17.37;11.80;;;5.90;99.90;;;;;;5051754;28;20246;-67
2023/12/17 11:12:13;;;;;;;13.37;11.83;;;6.00;99.90;;;;;;5050974;28;20623;-67
2023/12/17 11:14:42;;;;;;;14.57;11.60;;;6.00;99.90;;;;;;5051814;28;20224;-67
2023/12/17 11:17:12;;;;;;;15.20;11.83;;;5.80;99.90;;;;;;5046505;28;20204;-66
2023/12/17 11:19:54;;;;;;;16.57;12.67;;;5.60;99.90;;;;;;5064977;28;20196;-67
2023/12/17 11:22:22;;;;;;;16.83;11.17;;;5.30;99.90;;;;;;5060405;28;20225;-66
2023/12/17 11:24:49;;;;;;;14.70;11.13;;;5.30;99.90;;;;;;5063916;28;20642;-66
2023/12/17 11:27:22;;;;;;;17.40;11.77;;;5.10;99.90;;;;;;5058253;28;20192;-66
2023/12/17 11:29:49;;;;;;;17.00;12.00;;;5.00;99.90;;;;;;5076449;22;20211;-65
2023/12/17 11:32:18;;;;;;;18.53;12.67;;;5.10;99.90;;;;;;5078223;28;20188;-66
2023/12/17 11:34:48;;;;;;;17.77;12.17;;;5.10;99.90;;;;;;5094659;28;20237;-66
2023/12/17 11:37:18;;;;;;;18.07;12.47;;;5.10;99.90;;;;;;5104262;28;20219;-65
2023/12/17 11:39:47;;;;;;;17.43;12.10;;;5.00;99.90;;;;;;5101238;28;20188;-65
2023/12/17 11:42:14;;;;;;;18.07;13.27;;;5.10;99.90;;;;;;5075723;28;20204;-65
2023/12/17 11:44:45;;;;;;;13.93;11.47;;;5.20;99.90;;;;;;5047740;28;20223;-65
2023/12/17 11:47:12;;;;;;;15.57;11.53;;;5.30;99.90;;;;;;5041822;28;20294;-65
2023/12/17 11:49:42;;;;;;;13.20;10.47;;;5.30;99.90;;;;;;5047531;28;20233;-65
2023/12/17 11:52:13;;;;;;;14.27;10.93;;;5.20;99.90;;;;;;5047281;28;20197;-65
2023/12/17 11:54:41;;;;;;;10.80;9.70;;;5.30;99.90;;;;;;5063197;28;20210;-65
2023/12/17 11:57:21;;;;;;;15.20;11.50;;;5.40;99.90;;;;;;5062067;28;20211;-65
2023/12/17 11:59:48;;;;;;;12.80;10.17;;;5.30;99.90;;;;;;5059364;28;20203;-65
2023/12/17 12:02:16;;;;;;;14.00;11.47;;;5.30;99.90;;;;;;5052000;28;20257;-65
2023/12/17 12:04:46;;;;;;;14.95;11.65;;;5.10;99.90;;;;;;5067478;28;20454;-65
2023/12/17 12:07:17;;;;;;;14.17;10.73;;;5.10;99.90;;;;;;5056916;28;20623;-65
2023/12/17 12:09:44;;;;;;;11.93;10.00;;;5.00;99.90;;;;;;5042516;28;20291;-68
2023/12/17 12:12:18;;;;;;;13.43;9.47;;;5.10;99.90;;;;;;5053571;28;20223;-68
2023/12/17 12:14:47;;;;;;;14.40;11.30;;;5.00;99.90;;;;;;5064873;28;20193;-67
2023/12/17 12:17:39;;;;;;;11.40;9.97;;;4.90;99.90;;;;;;5054721;28;20247;-68
2023/12/17 12:20:09;;;;;;;18.13;11.83;;;4.80;99.90;;;;;;5053165;28;20258;-68
2023/12/17 12:22:36;;;;;;;14.73;11.70;;;4.70;99.90;;;;;;5060991;28;20298;-68
2023/12/17 12:25:04;;;;;;;20.57;12.63;;;4.60;99.90;;;;;;5048690;28;20248;-68
2023/12/17 12:27:31;;;;;;;18.30;12.73;;;4.60;99.90;;;;;;5051944;28;20242;-68
2023/12/17 12:29:58;;;;;;;16.13;11.97;;;4.60;99.90;;;;;;5052181;28;20223;-68
2023/12/17 12:32:29;;;;;;;21.43;14.57;;;4.50;99.90;;;;;;5054391;28;20253;-60
2023/12/17 12:34:57;;;;;;;23.17;13.37;;;4.40;99.90;;;;;;5070624;28;20244;-60
2023/12/17 12:37:36;;;;;;;18.50;13.00;;;4.40;99.90;;;;;;5040895;28;20239;-63
2023/12/17 12:40:30;;;;;;;21.10;13.63;;;4.50;99.90;;;;;;5043231;28;20245;-62